createdAt,value
2019-04-22T00:00:32.964Z,99.90
2019-04-22T00:03:02.807Z,99.90
2019-04-22T00:05:52.787Z,99.90
2019-04-22T00:08:16.729Z,99.90
2019-04-22T00:10:54.194Z,99.90
2019-04-22T00:13:26.183Z,99.90
2019-04-22T00:15:41.785Z,99.90
2019-04-22T00:18:23.055Z,99.90
2019-04-22T00:20:52.707Z,99.90
2019-04-22T00:23:13.180Z,99.90
2019-04-22T00:25:48.312Z,99.90
2019-04-22T00:28:19.978Z,99.90
2019-04-22T00:30:40.662Z,99.90
2019-04-22T00:33:18.692Z,99.90
2019-04-22T00:35:48.127Z,99.60
2019-04-22T00:38:19.857Z,99.70
2019-04-22T00:40:46.164Z,98.70
2019-04-22T00:43:13.903Z,98.60
2019-04-22T00:45:43.178Z,98.60
2019-04-22T00:48:17.912Z,98.30
2019-04-22T00:50:49.620Z,99.00
2019-04-22T00:53:16.338Z,98.90
2019-04-22T00:56:11.302Z,99.10
2019-04-22T00:58:43.894Z,99.50
2019-04-22T01:01:17.424Z,99.90
2019-04-22T01:03:42.743Z,99.90
2019-04-22T01:06:11.956Z,99.90
2019-04-22T01:08:40.274Z,99.90
2019-04-22T01:11:13.437Z,99.90
2019-04-22T01:13:30.432Z,99.90
2019-04-22T01:16:06.826Z,99.90
2019-04-22T01:18:29.338Z,99.90
2019-04-22T01:21:16.410Z,99.90
2019-04-22T01:23:28.205Z,99.90
2019-04-22T01:25:59.643Z,99.90
2019-04-22T01:28:23.966Z,99.90
2019-04-22T01:30:46.916Z,99.90
2019-04-22T01:33:16.892Z,99.90
2019-04-22T01:35:56.372Z,99.90
2019-04-22T01:38:23.541Z,99.90
2019-04-22T01:41:05.329Z,99.90
2019-04-22T01:43:32.818Z,99.90
2019-04-22T01:46:02.621Z,99.90
2019-04-22T01:48:26.879Z,99.90
2019-04-22T01:50:54.904Z,99.90
2019-04-22T01:53:27.515Z,99.90
2019-04-22T01:55:55.062Z,99.90
2019-04-22T01:58:18.419Z,99.90
2019-04-22T02:00:56.131Z,99.90
2019-04-22T02:03:26.535Z,99.90
2019-04-22T02:05:52.160Z,99.90
2019-04-22T02:08:23.395Z,99.90
2019-04-22T02:10:54.965Z,99.90
2019-04-22T02:13:23.749Z,99.90
2019-04-22T02:15:47.808Z,99.90
2019-04-22T02:20:43.008Z,99.90
2019-04-22T02:23:45.179Z,99.90
2019-04-22T02:26:03.951Z,99.90
2019-04-22T02:28:32.566Z,99.90
2019-04-22T02:31:13.998Z,99.90
2019-04-22T02:36:08.181Z,99.90
2019-04-22T02:43:33.996Z,99.90
2019-04-22T02:46:07.813Z,99.90
2019-04-22T02:48:40.136Z,99.90
2019-04-22T02:50:54.835Z,99.90
2019-04-22T02:53:38.502Z,99.90
2019-04-22T02:55:54.744Z,99.90
2019-04-22T02:58:27.711Z,99.90
2019-04-22T03:00:58.918Z,99.90
2019-04-22T03:05:56.657Z,99.90
2019-04-22T03:10:57.046Z,99.90
2019-04-22T03:13:34.848Z,99.90
2019-04-22T03:15:51.258Z,99.90
2019-04-22T03:18:20.363Z,99.90
2019-04-22T03:20:50.279Z,99.90
2019-04-22T03:26:00.477Z,99.90
2019-04-22T03:28:08.791Z,99.90
2019-04-22T03:35:45.024Z,99.90
2019-04-22T03:40:46.941Z,99.90
2019-04-22T03:43:26.308Z,99.90
2019-04-22T03:45:30.253Z,99.90
2019-04-22T03:48:47.423Z,99.90
2019-04-22T03:53:09.489Z,99.90
2019-04-22T03:55:41.201Z,99.90
2019-04-22T03:58:18.975Z,99.90
2019-04-22T04:05:49.640Z,99.90
2019-04-22T04:15:34.691Z,99.90
2019-04-22T04:17:55.035Z,99.90
2019-04-22T04:20:32.450Z,99.90
2019-04-22T04:23:24.411Z,99.90
2019-04-22T04:28:24.304Z,99.90
2019-04-22T04:30:29.978Z,99.90
2019-04-22T04:35:32.876Z,99.90
2019-04-22T04:40:37.722Z,99.90
2019-04-22T04:45:33.774Z,99.90
2019-04-22T04:50:51.025Z,99.90
2019-04-22T04:55:28.516Z,99.90
2019-04-22T04:57:54.439Z,99.90
2019-04-22T05:05:31.736Z,99.90
2019-04-22T05:07:56.630Z,99.90
2019-04-22T05:15:12.011Z,99.90
2019-04-22T05:20:12.899Z,99.90
2019-04-22T05:22:34.051Z,99.90
2019-04-22T05:25:04.729Z,99.90
2019-04-22T05:27:34.653Z,99.90
2019-04-22T05:32:24.600Z,99.90
2019-04-22T05:34:52.843Z,99.90
2019-04-22T05:37:27.339Z,99.90
2019-04-22T05:39:51.372Z,99.90
2019-04-22T05:42:21.291Z,99.90
2019-04-22T05:44:52.832Z,99.90
2019-04-22T05:47:22.580Z,99.90
2019-04-22T05:49:47.720Z,99.90
2019-04-22T05:52:18.402Z,99.90
2019-04-22T05:54:47.110Z,99.90
2019-04-22T05:57:17.957Z,99.90
2019-04-22T05:59:46.240Z,99.90
2019-04-22T06:04:45.011Z,99.90
2019-04-22T06:07:06.557Z,99.90
2019-04-22T06:09:46.782Z,99.90
2019-04-22T06:12:10.698Z,98.50
2019-04-22T06:14:37.093Z,93.90
2019-04-22T06:17:20.231Z,90.80
2019-04-22T06:19:44.383Z,83.40
2019-04-22T06:22:23.864Z,83.80
2019-04-22T06:24:43.726Z,79.00
2019-04-22T06:27:19.132Z,71.80
2019-04-22T06:29:38.260Z,68.60
2019-04-22T06:32:23.327Z,63.60
2019-04-22T06:39:40.103Z,63.50
2019-04-22T06:42:07.974Z,58.90
2019-04-22T06:44:36.495Z,65.90
2019-04-22T06:47:05.587Z,63.30
2019-04-22T06:49:35.520Z,61.20
2019-04-22T06:52:11.671Z,60.00
2019-04-22T06:54:37.483Z,57.10
2019-04-22T06:57:04.305Z,59.50
2019-04-22T06:59:32.693Z,57.20
2019-04-22T07:02:02.207Z,58.00
2019-04-22T07:04:29.773Z,56.30
2019-04-22T07:07:05.357Z,55.00
2019-04-22T07:12:02.432Z,60.00
2019-04-22T07:14:22.333Z,57.90
2019-04-22T07:16:56.112Z,58.00
2019-04-22T07:19:28.461Z,58.30
2019-04-22T07:21:57.697Z,57.90
2019-04-22T07:26:54.603Z,58.40
2019-04-22T07:29:23.638Z,58.10
2019-04-22T07:31:56.257Z,59.50
2019-04-22T07:34:40.770Z,59.60
2019-04-22T07:36:56.618Z,58.10
2019-04-22T07:39:15.632Z,58.60
2019-04-22T07:41:47.482Z,56.20
2019-04-22T07:44:19.893Z,63.80
2019-04-22T07:46:53.884Z,60.70
2019-04-22T07:49:18.394Z,55.10
2019-04-22T07:51:44.502Z,53.80
2019-04-22T07:54:16.280Z,51.50
2019-04-22T07:56:48.060Z,55.10
2019-04-22T07:59:15.598Z,52.40
2019-04-22T08:01:42.778Z,50.70
2019-04-22T08:06:46.085Z,50.60
2019-04-22T08:09:14.152Z,49.70
2019-04-22T08:11:51.310Z,46.20
2019-04-22T08:14:07.581Z,45.30
2019-04-22T08:16:37.709Z,44.60
2019-04-22T08:19:08.884Z,45.10
2019-04-22T08:21:44.326Z,44.00
2019-04-22T08:24:07.809Z,44.50
2019-04-22T08:26:38.225Z,46.20
2019-04-22T08:29:12.156Z,46.20
2019-04-22T08:31:35.678Z,47.20
2019-04-22T08:34:08.165Z,50.50
2019-04-22T08:36:31.571Z,48.40
2019-04-22T08:39:04.480Z,47.70
2019-04-22T08:44:04.969Z,43.90
2019-04-22T08:46:33.155Z,45.40
2019-04-22T08:48:59.897Z,47.30
2019-04-22T08:51:48.874Z,47.30
2019-04-22T08:54:00.231Z,49.20
2019-04-22T08:56:32.245Z,48.80
2019-04-22T08:59:02.053Z,47.60
2019-04-22T09:03:58.122Z,51.40
2019-04-22T09:06:39.978Z,50.80
2019-04-22T09:08:55.329Z,49.60
2019-04-22T09:11:29.666Z,48.60
2019-04-22T09:16:30.239Z,45.80
2019-04-22T09:18:48.695Z,46.20
2019-04-22T09:23:53.896Z,50.00
2019-04-22T09:26:23.983Z,47.60
2019-04-22T09:28:52.270Z,44.70
2019-04-22T09:31:18.987Z,44.90
2019-04-22T09:33:46.535Z,44.20
2019-04-22T09:36:22.388Z,46.00
2019-04-22T09:41:18.781Z,47.90
2019-04-22T09:46:15.155Z,47.60
2019-04-22T09:48:43.455Z,46.30
2019-04-22T09:51:14.998Z,49.00
2019-04-22T09:53:47.107Z,49.60
2019-04-22T09:56:09.757Z,48.40
2019-04-22T09:58:44.371Z,45.10
2019-04-22T10:01:32.416Z,46.90
2019-04-22T10:03:48.132Z,43.80
2019-04-22T10:06:16.665Z,44.10
2019-04-22T10:08:52.726Z,44.00
2019-04-22T10:11:14.293Z,44.80
2019-04-22T10:13:40.994Z,46.10
2019-04-22T10:16:10.430Z,45.00
2019-04-22T10:18:39.152Z,44.00
2019-04-22T10:21:12.664Z,45.60
2019-04-22T10:23:42.314Z,43.50
2019-04-22T10:26:04.960Z,44.40
2019-04-22T10:28:40.019Z,46.10
2019-04-22T10:31:03.313Z,43.00
2019-04-22T10:33:25.780Z,43.80
2019-04-22T10:35:37.401Z,43.00
2019-04-22T10:38:05.977Z,44.60
2019-04-22T10:40:34.607Z,46.90
2019-04-22T10:43:03.172Z,48.90
2019-04-22T10:45:30.481Z,43.20
2019-04-22T10:47:58.382Z,45.00
2019-04-22T10:50:38.061Z,47.50
2019-04-22T10:53:06.169Z,45.10
2019-04-22T10:55:34.822Z,44.10
2019-04-22T11:00:29.824Z,43.50
2019-04-22T11:02:57.962Z,42.60
2019-04-22T11:05:26.164Z,43.30
2019-04-22T11:07:58.968Z,41.80
2019-04-22T11:10:36.827Z,45.30
2019-04-22T11:12:52.143Z,47.70
2019-04-22T11:15:20.302Z,43.60
2019-04-22T11:17:47.457Z,43.20
2019-04-22T11:20:24.009Z,44.50
2019-04-22T11:22:58.582Z,43.50
2019-04-22T11:25:34.113Z,44.60
2019-04-22T11:28:09.835Z,45.30
2019-04-22T11:30:44.919Z,44.40
2019-04-22T11:33:18.300Z,44.80
2019-04-22T11:35:53.481Z,44.30
2019-04-22T11:38:26.696Z,43.70
2019-04-22T11:41:01.878Z,44.30
2019-04-22T11:43:34.716Z,43.30
2019-04-22T11:46:11.434Z,44.70
2019-04-22T11:48:48.204Z,48.80
2019-04-22T11:51:22.128Z,44.60
2019-04-22T11:54:05.118Z,44.40
2019-04-22T11:56:38.990Z,42.10
2019-04-22T11:59:22.881Z,42.00
2019-04-22T12:01:52.820Z,43.40
2019-04-22T12:04:20.224Z,45.10
2019-04-22T12:06:47.496Z,42.20
2019-04-22T12:09:17.581Z,42.20
2019-04-22T12:11:45.028Z,43.90
2019-04-22T12:14:12.071Z,41.90
2019-04-22T12:16:39.488Z,39.90
2019-04-22T12:19:07.212Z,44.60
2019-04-22T12:21:35.544Z,41.90
2019-04-22T12:24:05.428Z,40.00
2019-04-22T12:26:32.849Z,41.20
2019-04-22T12:29:00.044Z,41.00
2019-04-22T12:31:27.546Z,42.10
2019-04-22T12:33:55.111Z,42.10
2019-04-22T12:36:22.795Z,43.00
2019-04-22T12:38:51.426Z,45.70
2019-04-22T12:41:19.709Z,43.20
2019-04-22T12:43:47.458Z,43.10
2019-04-22T12:46:16.221Z,45.00
2019-04-22T12:48:46.901Z,43.70
2019-04-22T12:51:15.350Z,41.70
2019-04-22T12:53:42.626Z,41.70
2019-04-22T12:56:10.974Z,42.10
2019-04-22T12:58:45.537Z,40.60
2019-04-22T13:01:13.108Z,41.10
2019-04-22T13:03:42.605Z,39.60
2019-04-22T13:06:09.984Z,41.30
2019-04-22T13:08:38.088Z,39.80
2019-04-22T13:11:11.750Z,41.10
2019-04-22T13:13:34.620Z,40.60
2019-04-22T13:16:02.798Z,41.40
2019-04-22T13:18:38.120Z,41.80
2019-04-22T13:21:00.407Z,39.50
2019-04-22T13:23:29.821Z,40.50
2019-04-22T13:25:57.069Z,42.10
2019-04-22T13:28:25.180Z,41.90
2019-04-22T13:30:52.697Z,40.40
2019-04-22T13:33:20.999Z,39.30
2019-04-22T13:35:48.177Z,41.10
2019-04-22T13:38:15.345Z,40.70
2019-04-22T13:40:59.226Z,40.90
2019-04-22T13:43:13.165Z,40.10
2019-04-22T13:45:40.744Z,39.20
2019-04-22T13:48:23.967Z,41.60
2019-04-22T13:51:09.637Z,40.50
2019-04-22T13:55:57.917Z,40.60
2019-04-22T13:58:18.449Z,38.50
2019-04-22T14:00:34.471Z,38.90
2019-04-22T14:03:22.526Z,37.10
2019-04-22T14:05:50.926Z,37.30
2019-04-22T14:08:19.960Z,36.90
2019-04-22T14:10:48.408Z,37.30
2019-04-22T14:13:16.119Z,36.70
2019-04-22T14:15:43.851Z,34.20
2019-04-22T14:18:11.117Z,34.50
2019-04-22T14:20:38.706Z,35.50
2019-04-22T14:23:06.641Z,37.50
2019-04-22T14:25:34.910Z,35.30
2019-04-22T14:28:09.148Z,34.40
2019-04-22T14:30:32.571Z,34.90
2019-04-22T14:33:00.395Z,36.30
2019-04-22T14:35:29.065Z,37.40
2019-04-22T14:37:56.506Z,37.70
2019-04-22T14:40:26.277Z,38.30
2019-04-22T14:43:14.889Z,38.10
2019-04-22T14:45:58.053Z,39.80
2019-04-22T14:48:13.690Z,40.50
2019-04-22T14:50:40.493Z,38.60
2019-04-22T14:53:09.797Z,38.70
2019-04-22T14:55:23.889Z,40.20
2019-04-22T14:57:49.015Z,40.20
2019-04-22T15:00:18.048Z,42.50
2019-04-22T15:02:46.051Z,42.10
2019-04-22T15:05:14.357Z,43.20
2019-04-22T15:07:43.225Z,41.70
2019-04-22T15:10:11.094Z,41.80
2019-04-22T15:12:44.566Z,42.60
2019-04-22T15:15:23.552Z,42.90
2019-04-22T15:17:58.843Z,42.30
2019-04-22T15:20:48.742Z,41.50
2019-04-22T15:23:14.889Z,42.10
2019-04-22T15:25:42.140Z,43.50
2019-04-22T15:28:11.127Z,45.00
2019-04-22T15:30:39.381Z,43.70
2019-04-22T15:33:07.440Z,43.40
2019-04-22T15:35:35.463Z,44.20
2019-04-22T15:38:04.511Z,41.90
2019-04-22T15:40:32.068Z,42.70
2019-04-22T15:42:59.289Z,43.50
2019-04-22T15:45:26.601Z,43.50
2019-04-22T15:47:53.888Z,45.10
2019-04-22T15:50:22.373Z,43.80
2019-04-22T15:52:53.252Z,42.80
2019-04-22T15:55:22.825Z,43.20
2019-04-22T15:57:50.116Z,45.50
2019-04-22T16:00:29.341Z,46.40
2019-04-22T16:02:47.601Z,45.00
2019-04-22T16:05:15.163Z,44.90
2019-04-22T16:07:42.335Z,45.50
2019-04-22T16:10:10.126Z,46.50
2019-04-22T16:12:49.371Z,45.00
2019-04-22T16:15:07.518Z,44.90
2019-04-22T16:17:37.086Z,45.40
2019-04-22T16:20:06.856Z,45.60
2019-04-22T16:22:55.021Z,46.60
2019-04-22T16:25:41.078Z,47.00
2019-04-22T16:28:08.981Z,48.20
2019-04-22T16:30:37.383Z,49.50
2019-04-22T16:33:05.723Z,49.40
2019-04-22T16:35:33.133Z,47.80
2019-04-22T16:38:01.026Z,48.00
2019-04-22T16:40:30.560Z,48.50
2019-04-22T16:43:01.969Z,48.80
2019-04-22T16:45:27.390Z,49.40
2019-04-22T16:47:55.611Z,49.20
2019-04-22T16:50:25.058Z,49.30
2019-04-22T16:52:52.476Z,49.50
2019-04-22T16:55:21.063Z,48.70
2019-04-22T16:57:48.375Z,49.20
2019-04-22T17:00:16.602Z,49.40
2019-04-22T17:03:09.154Z,49.60
2019-04-22T17:05:54.219Z,49.80
2019-04-22T17:08:24.404Z,49.80
2019-04-22T17:10:51.965Z,50.50
2019-04-22T17:13:23.344Z,50.60
2019-04-22T17:15:49.429Z,50.30
2019-04-22T17:18:17.184Z,50.30
2019-04-22T17:20:44.742Z,50.80
2019-04-22T17:23:11.901Z,51.30
2019-04-22T17:25:40.398Z,52.10
2019-04-22T17:28:07.840Z,52.00
2019-04-22T17:30:36.007Z,52.50
2019-04-22T17:33:04.817Z,52.50
2019-04-22T17:35:34.028Z,52.50
2019-04-22T17:38:10.127Z,53.10
2019-04-22T17:40:49.431Z,53.00
2019-04-22T17:43:32.646Z,53.10
2019-04-22T17:46:19.502Z,53.30
2019-04-22T17:49:12.152Z,53.50
2019-04-22T17:51:36.706Z,53.20
2019-04-22T17:54:12.040Z,53.00
2019-04-22T17:56:37.600Z,53.40
2019-04-22T17:59:10.452Z,53.60
2019-04-22T18:01:32.655Z,53.60
2019-04-22T18:03:49.820Z,53.60
2019-04-22T18:06:42.639Z,54.10
2019-04-22T18:09:03.612Z,54.40
2019-04-22T18:11:41.523Z,54.70
2019-04-22T18:14:11.592Z,55.30
2019-04-22T18:16:34.452Z,55.60
2019-04-22T18:19:00.559Z,55.70
2019-04-22T18:21:23.216Z,55.90
2019-04-22T18:23:52.059Z,56.10
2019-04-22T18:26:27.635Z,56.10
2019-04-22T18:28:54.352Z,56.80
2019-04-22T18:31:17.405Z,57.20
2019-04-22T18:33:50.371Z,57.40
2019-04-22T18:36:19.655Z,58.20
2019-04-22T18:38:58.690Z,59.00
2019-04-22T18:41:17.833Z,58.90
2019-04-22T18:44:00.511Z,60.10
2019-04-22T18:46:20.900Z,60.70
2019-04-22T18:48:53.951Z,61.20
2019-04-22T18:51:28.960Z,60.60
2019-04-22T18:54:30.996Z,59.80
2019-04-22T18:56:57.060Z,59.50
2019-04-22T18:59:14.622Z,59.50
2019-04-22T19:01:37.789Z,59.50
2019-04-22T19:04:12.936Z,59.20
2019-04-22T19:06:55.685Z,58.40
2019-04-22T19:09:40.394Z,58.40
2019-04-22T19:12:10.330Z,58.30
2019-04-22T19:14:33.478Z,58.30
2019-04-22T19:17:08.238Z,58.50
2019-04-22T19:21:56.029Z,58.40
2019-04-22T19:24:19.694Z,58.40
2019-04-22T19:29:28.554Z,58.80
2019-04-22T19:31:52.325Z,58.70
2019-04-22T19:34:23.373Z,58.90
2019-04-22T19:36:51.614Z,59.10
2019-04-22T19:39:11.791Z,59.40
2019-04-22T19:41:53.676Z,59.80
2019-04-22T19:44:20.125Z,59.50
2019-04-22T19:46:53.235Z,59.50
2019-04-22T19:49:29.356Z,59.60
2019-04-22T19:51:52.647Z,60.00
2019-04-22T19:54:15.697Z,59.60
2019-04-22T19:56:36.467Z,59.50
2019-04-22T19:59:12.358Z,59.20
2019-04-22T20:01:56.886Z,59.60
2019-04-22T20:04:41.912Z,59.00
2019-04-22T20:07:09.474Z,59.20
2019-04-22T20:09:43.743Z,59.40
2019-04-22T20:12:04.525Z,59.90
2019-04-22T20:14:43.696Z,59.70
2019-04-22T20:17:02.606Z,59.70
2019-04-22T20:22:03.501Z,61.10
2019-04-22T20:24:20.730Z,61.60
2019-04-22T20:27:02.975Z,62.00
2019-04-22T20:29:40.090Z,62.60
2019-04-22T20:32:05.318Z,63.40
2019-04-22T20:34:35.519Z,63.00
2019-04-22T20:39:33.187Z,63.80
2019-04-22T20:42:14.781Z,64.30
2019-04-22T20:44:35.311Z,64.80
2019-04-22T20:46:59.026Z,65.20
2019-04-22T20:49:33.782Z,65.70
2019-04-22T20:52:08.042Z,66.10
2019-04-22T20:54:22.993Z,66.10
2019-04-22T20:56:51.611Z,66.50
2019-04-22T20:59:23.791Z,66.30
2019-04-22T21:01:54.948Z,66.30
2019-04-22T21:04:11.481Z,66.30
2019-04-22T21:06:47.743Z,66.80
2019-04-22T21:09:22.043Z,67.20
2019-04-22T21:11:49.407Z,67.50
2019-04-22T21:14:14.784Z,68.00
2019-04-22T21:16:53.230Z,68.60
2019-04-22T21:19:29.745Z,69.00
2019-04-22T21:21:50.243Z,70.00
2019-04-22T21:24:18.110Z,70.70
2019-04-22T21:26:45.376Z,71.30
2019-04-22T21:29:12.986Z,71.90
2019-04-22T21:31:46.457Z,72.50
2019-04-22T21:34:10.319Z,73.20
2019-04-22T21:36:46.199Z,74.20
2019-04-22T21:39:10.992Z,75.00
2019-04-22T21:41:44.596Z,75.50
2019-04-22T21:44:10.331Z,76.10
2019-04-22T21:46:44.328Z,76.80
2019-04-22T21:49:10.872Z,77.20
2019-04-22T21:51:43.252Z,77.80
2019-04-22T21:57:01.769Z,79.20
2019-04-22T21:59:17.604Z,79.60
2019-04-22T22:04:20.653Z,80.50
2019-04-22T22:06:41.258Z,81.20
2019-04-22T22:09:20.495Z,81.80
2019-04-22T22:11:49.145Z,82.20
2019-04-22T22:14:18.085Z,83.60
2019-04-22T22:16:43.511Z,84.30
2019-04-22T22:19:17.178Z,84.70
2019-04-22T22:21:51.352Z,86.00
2019-04-22T22:24:21.131Z,86.40
2019-04-22T22:26:45.774Z,87.50
2019-04-22T22:29:20.196Z,88.30
2019-04-22T22:31:47.051Z,89.30
2019-04-22T22:34:13.668Z,89.60
2019-04-22T22:36:36.354Z,90.20
2019-04-22T22:39:05.726Z,90.80
2019-04-22T22:41:19.009Z,91.00
2019-04-22T22:43:51.029Z,91.40
2019-04-22T22:46:29.235Z,92.20
2019-04-22T22:49:09.865Z,92.50
2019-04-22T22:51:40.270Z,92.80
2019-04-22T22:54:03.864Z,93.40
2019-04-22T22:56:42.243Z,93.70
2019-04-22T22:59:02.865Z,93.80
2019-04-22T23:01:37.402Z,94.10
2019-04-22T23:04:02.505Z,95.00
2019-04-22T23:06:32.865Z,95.20
2019-04-22T23:09:05.705Z,95.70
2019-04-22T23:11:50.807Z,96.40
2019-04-22T23:13:56.840Z,96.80
2019-04-22T23:16:18.249Z,97.10
2019-04-22T23:18:55.388Z,97.60
2019-04-22T23:21:31.275Z,98.40
2019-04-22T23:24:12.894Z,99.00
2019-04-22T23:26:42.219Z,99.80
2019-04-22T23:29:24.916Z,99.90
2019-04-22T23:32:00.381Z,99.90
2019-04-22T23:34:26.660Z,99.90
2019-04-22T23:37:22.767Z,99.90
2019-04-22T23:39:59.016Z,99.90
2019-04-22T23:42:27.398Z,99.90
2019-04-22T23:44:56.973Z,99.90
2019-04-22T23:47:26.430Z,99.90
2019-04-22T23:50:01.027Z,99.90
2019-04-22T23:52:35.657Z,99.90
2019-04-22T23:55:06.864Z,99.90
2019-04-22T23:57:34.780Z,99.90
